Aiea, Hawaii
Current Conditions -  °F | °C
As of 1:53 AM on Friday 24 Oct 2014 (Local Time) from PHNL Reporting Station
Broken Clouds Broken Clouds  
Wind Chill: 76°   Ceiling: 8000
Heat Index: 76°   Visibility: 10mi
Dew Point: 70°   Wind: 9mph
Humidity: 82%   Direction: 50°NE
Pressure: 30.01"   Gusts: NA
Location:  21.38°N, 157.93°W
Report Text: PHNL 241153Z 05008KT 10SM FEW031 SCT060 BKN080 24/21 A3001 RMK AO2 RAB06E15 SLP160 P0000 60000 T02440211 10261 20244 58014
Loading
Personal Weather Stations






























Interactive Weather Map
Tropical Storm Tracking
New forecast layout! Learn more

10-Day Weather Forecast

Advertisements
Track Severe Weather on mobile